sensor_id;sensor_type;location;lat;lon;timestamp;P1;durP1;ratioP1;P2;durP2;ratioP2
16466;SDS011;8344;47.560;9.710;2023-04-15T00:02:13;0.70;;;0.70;;
16466;SDS011;8344;47.560;9.710;2023-04-15T00:04:45;0.60;;;0.60;;
16466;SDS011;8344;47.560;9.710;2023-04-15T00:07:10;0.57;;;0.57;;
16466;SDS011;8344;47.560;9.710;2023-04-15T00:09:36;0.60;;;0.60;;
16466;SDS011;8344;47.560;9.710;2023-04-15T00:12:01;0.60;;;0.60;;
16466;SDS011;8344;47.560;9.710;2023-04-15T00:14:27;0.60;;;0.60;;
16466;SDS011;8344;47.560;9.710;2023-04-15T00:16:52;0.70;;;0.70;;
16466;SDS011;8344;47.560;9.710;2023-04-15T00:19:20;0.63;;;0.63;;
16466;SDS011;8344;47.560;9.710;2023-04-15T00:21:45;0.70;;;0.70;;
16466;SDS011;8344;47.560;9.710;2023-04-15T00:24:11;0.70;;;0.70;;
16466;SDS011;8344;47.560;9.710;2023-04-15T00:26:37;0.70;;;0.70;;
16466;SDS011;8344;47.560;9.710;2023-04-15T00:29:02;0.70;;;0.70;;
16466;SDS011;8344;47.560;9.710;2023-04-15T00:31:28;0.67;;;0.67;;
16466;SDS011;8344;47.560;9.710;2023-04-15T00:33:54;0.50;;;0.50;;
16466;SDS011;8344;47.560;9.710;2023-04-15T00:36:20;0.60;;;0.60;;
16466;SDS011;8344;47.560;9.710;2023-04-15T00:38:45;0.80;;;0.80;;
16466;SDS011;8344;47.560;9.710;2023-04-15T00:41:10;0.50;;;0.50;;
16466;SDS011;8344;47.560;9.710;2023-04-15T00:43:36;0.80;;;0.80;;
16466;SDS011;8344;47.560;9.710;2023-04-15T00:46:03;0.67;;;0.67;;
16466;SDS011;8344;47.560;9.710;2023-04-15T00:48:28;0.60;;;0.60;;
16466;SDS011;8344;47.560;9.710;2023-04-15T00:50:54;0.70;;;0.70;;
16466;SDS011;8344;47.560;9.710;2023-04-15T00:53:19;0.47;;;0.47;;
16466;SDS011;8344;47.560;9.710;2023-04-15T00:55:44;0.70;;;0.70;;
16466;SDS011;8344;47.560;9.710;2023-04-15T00:58:10;0.60;;;0.60;;
16466;SDS011;8344;47.560;9.710;2023-04-15T01:00:35;0.60;;;0.60;;
16466;SDS011;8344;47.560;9.710;2023-04-15T01:03:01;0.50;;;0.50;;
16466;SDS011;8344;47.560;9.710;2023-04-15T01:05:27;0.60;;;0.60;;
16466;SDS011;8344;47.560;9.710;2023-04-15T01:07:52;0.50;;;0.50;;
16466;SDS011;8344;47.560;9.710;2023-04-15T01:10:17;0.70;;;0.70;;
16466;SDS011;8344;47.560;9.710;2023-04-15T01:12:43;0.60;;;0.60;;
16466;SDS011;8344;47.560;9.710;2023-04-15T01:15:08;0.57;;;0.57;;
16466;SDS011;8344;47.560;9.710;2023-04-15T01:17:35;0.73;;;0.73;;
16466;SDS011;8344;47.560;9.710;2023-04-15T01:20:00;0.60;;;0.60;;
16466;SDS011;8344;47.560;9.710;2023-04-15T01:22:26;0.63;;;0.63;;
16466;SDS011;8344;47.560;9.710;2023-04-15T01:24:56;0.80;;;0.80;;
16466;SDS011;8344;47.560;9.710;2023-04-15T01:27:26;0.70;;;0.70;;
16466;SDS011;8344;47.560;9.710;2023-04-15T01:29:51;0.53;;;0.53;;
16466;SDS011;8344;47.560;9.710;2023-04-15T01:32:17;0.50;;;0.50;;
16466;SDS011;8344;47.560;9.710;2023-04-15T01:34:43;0.50;;;0.50;;
16466;SDS011;8344;47.560;9.710;2023-04-15T01:37:08;0.60;;;0.60;;
16466;SDS011;8344;47.560;9.710;2023-04-15T01:39:33;0.70;;;0.70;;
16466;SDS011;8344;47.560;9.710;2023-04-15T01:41:59;0.70;;;0.70;;
16466;SDS011;8344;47.560;9.710;2023-04-15T01:44:24;0.70;;;0.70;;
16466;SDS011;8344;47.560;9.710;2023-04-15T01:46:50;0.50;;;0.50;;
16466;SDS011;8344;47.560;9.710;2023-04-15T01:49:15;0.60;;;0.60;;
16466;SDS011;8344;47.560;9.710;2023-04-15T01:51:41;0.80;;;0.80;;
16466;SDS011;8344;47.560;9.710;2023-04-15T01:54:06;0.80;;;0.80;;
16466;SDS011;8344;47.560;9.710;2023-04-15T01:56:31;0.60;;;0.60;;
16466;SDS011;8344;47.560;9.710;2023-04-15T01:58:57;0.67;;;0.67;;
16466;SDS011;8344;47.560;9.710;2023-04-15T02:01:22;0.50;;;0.50;;
16466;SDS011;8344;47.560;9.710;2023-04-15T02:03:48;0.60;;;0.60;;
16466;SDS011;8344;47.560;9.710;2023-04-15T02:06:13;0.60;;;0.60;;
16466;SDS011;8344;47.560;9.710;2023-04-15T02:08:38;0.63;;;0.63;;
16466;SDS011;8344;47.560;9.710;2023-04-15T02:11:04;0.60;;;0.60;;
16466;SDS011;8344;47.560;9.710;2023-04-15T02:13:29;0.60;;;0.60;;
16466;SDS011;8344;47.560;9.710;2023-04-15T02:15:54;0.70;;;0.70;;
16466;SDS011;8344;47.560;9.710;2023-04-15T02:18:20;0.80;;;0.80;;
16466;SDS011;8344;47.560;9.710;2023-04-15T02:20:46;0.57;;;0.57;;
16466;SDS011;8344;47.560;9.710;2023-04-15T02:23:12;0.60;;;0.60;;
16466;SDS011;8344;47.560;9.710;2023-04-15T02:25:37;0.70;;;0.70;;
16466;SDS011;8344;47.560;9.710;2023-04-15T02:28:04;0.70;;;0.70;;
16466;SDS011;8344;47.560;9.710;2023-04-15T02:30:30;0.60;;;0.60;;
16466;SDS011;8344;47.560;9.710;2023-04-15T02:32:56;0.60;;;0.60;;
16466;SDS011;8344;47.560;9.710;2023-04-15T02:35:21;0.60;;;0.60;;
16466;SDS011;8344;47.560;9.710;2023-04-15T02:37:49;0.60;;;0.60;;
16466;SDS011;8344;47.560;9.710;2023-04-15T02:40:15;0.77;;;0.77;;
16466;SDS011;8344;47.560;9.710;2023-04-15T02:42:41;0.60;;;0.60;;
16466;SDS011;8344;47.560;9.710;2023-04-15T02:45:08;0.60;;;0.60;;
16466;SDS011;8344;47.560;9.710;2023-04-15T02:47:34;0.70;;;0.70;;
16466;SDS011;8344;47.560;9.710;2023-04-15T02:50:00;0.83;;;0.83;;
16466;SDS011;8344;47.560;9.710;2023-04-15T02:52:27;0.60;;;0.60;;
16466;SDS011;8344;47.560;9.710;2023-04-15T02:54:52;0.60;;;0.60;;
16466;SDS011;8344;47.560;9.710;2023-04-15T02:57:21;0.80;;;0.80;;
16466;SDS011;8344;47.560;9.710;2023-04-15T02:59:47;0.80;;;0.80;;
16466;SDS011;8344;47.560;9.710;2023-04-15T03:02:12;0.60;;;0.60;;
16466;SDS011;8344;47.560;9.710;2023-04-15T03:04:37;0.90;;;0.90;;
16466;SDS011;8344;47.560;9.710;2023-04-15T03:07:03;0.70;;;0.70;;
16466;SDS011;8344;47.560;9.710;2023-04-15T03:09:29;0.73;;;0.73;;
16466;SDS011;8344;47.560;9.710;2023-04-15T03:11:54;0.90;;;0.90;;
16466;SDS011;8344;47.560;9.710;2023-04-15T03:14:20;0.70;;;0.70;;
16466;SDS011;8344;47.560;9.710;2023-04-15T03:16:46;0.70;;;0.70;;
16466;SDS011;8344;47.560;9.710;2023-04-15T03:19:11;0.70;;;0.70;;
16466;SDS011;8344;47.560;9.710;2023-04-15T03:21:37;0.70;;;0.70;;
16466;SDS011;8344;47.560;9.710;2023-04-15T03:24:02;0.70;;;0.70;;
16466;SDS011;8344;47.560;9.710;2023-04-15T03:26:28;0.90;;;0.90;;
16466;SDS011;8344;47.560;9.710;2023-04-15T03:28:54;0.67;;;0.67;;
16466;SDS011;8344;47.560;9.710;2023-04-15T03:31:20;0.80;;;0.80;;
16466;SDS011;8344;47.560;9.710;2023-04-15T03:33:45;0.60;;;0.60;;
16466;SDS011;8344;47.560;9.710;2023-04-15T03:36:10;0.70;;;0.70;;
16466;SDS011;8344;47.560;9.710;2023-04-15T03:38:36;0.60;;;0.60;;
16466;SDS011;8344;47.560;9.710;2023-04-15T03:41:01;0.60;;;0.60;;
16466;SDS011;8344;47.560;9.710;2023-04-15T03:43:26;0.70;;;0.70;;
16466;SDS011;8344;47.560;9.710;2023-04-15T03:45:51;0.90;;;0.90;;
16466;SDS011;8344;47.560;9.710;2023-04-15T03:48:17;0.80;;;0.80;;
16466;SDS011;8344;47.560;9.710;2023-04-15T03:50:42;0.63;;;0.63;;
16466;SDS011;8344;47.560;9.710;2023-04-15T03:53:07;0.60;;;0.60;;
16466;SDS011;8344;47.560;9.710;2023-04-15T03:55:33;0.90;;;0.90;;
16466;SDS011;8344;47.560;9.710;2023-04-15T03:57:58;0.70;;;0.70;;
16466;SDS011;8344;47.560;9.710;2023-04-15T04:00:23;0.70;;;0.70;;
16466;SDS011;8344;47.560;9.710;2023-04-15T04:02:49;0.70;;;0.70;;
16466;SDS011;8344;47.560;9.710;2023-04-15T04:05:14;0.80;;;0.80;;
16466;SDS011;8344;47.560;9.710;2023-04-15T04:07:40;0.80;;;0.80;;
16466;SDS011;8344;47.560;9.710;2023-04-15T04:10:05;0.70;;;0.70;;
16466;SDS011;8344;47.560;9.710;2023-04-15T04:12:31;0.60;;;0.60;;
16466;SDS011;8344;47.560;9.710;2023-04-15T04:14:56;0.70;;;0.70;;
16466;SDS011;8344;47.560;9.710;2023-04-15T04:17:21;0.60;;;0.60;;
16466;SDS011;8344;47.560;9.710;2023-04-15T04:19:47;0.70;;;0.70;;
16466;SDS011;8344;47.560;9.710;2023-04-15T04:22:12;0.80;;;0.80;;
16466;SDS011;8344;47.560;9.710;2023-04-15T04:24:37;0.60;;;0.60;;
16466;SDS011;8344;47.560;9.710;2023-04-15T04:27:02;0.60;;;0.60;;
16466;SDS011;8344;47.560;9.710;2023-04-15T04:29:28;0.60;;;0.60;;
16466;SDS011;8344;47.560;9.710;2023-04-15T04:31:53;0.70;;;0.70;;
16466;SDS011;8344;47.560;9.710;2023-04-15T04:34:18;0.73;;;0.73;;
16466;SDS011;8344;47.560;9.710;2023-04-15T04:36:44;0.60;;;0.60;;
16466;SDS011;8344;47.560;9.710;2023-04-15T04:39:09;0.90;;;0.90;;
16466;SDS011;8344;47.560;9.710;2023-04-15T04:41:34;0.60;;;0.60;;
16466;SDS011;8344;47.560;9.710;2023-04-15T04:44:00;0.60;;;0.60;;
16466;SDS011;8344;47.560;9.710;2023-04-15T04:46:25;0.70;;;0.70;;
16466;SDS011;8344;47.560;9.710;2023-04-15T04:48:51;0.73;;;0.73;;
16466;SDS011;8344;47.560;9.710;2023-04-15T04:51:16;0.77;;;0.77;;
16466;SDS011;8344;47.560;9.710;2023-04-15T04:53:42;0.70;;;0.70;;
16466;SDS011;8344;47.560;9.710;2023-04-15T04:56:08;0.60;;;0.60;;
16466;SDS011;8344;47.560;9.710;2023-04-15T04:58:33;0.80;;;0.80;;
16466;SDS011;8344;47.560;9.710;2023-04-15T05:00:58;0.80;;;0.80;;
16466;SDS011;8344;47.560;9.710;2023-04-15T05:03:24;0.60;;;0.60;;
16466;SDS011;8344;47.560;9.710;2023-04-15T05:05:49;0.70;;;0.70;;
16466;SDS011;8344;47.560;9.710;2023-04-15T05:08:15;0.70;;;0.70;;
16466;SDS011;8344;47.560;9.710;2023-04-15T05:10:40;0.70;;;0.70;;
16466;SDS011;8344;47.560;9.710;2023-04-15T05:13:05;0.80;;;0.80;;
16466;SDS011;8344;47.560;9.710;2023-04-15T05:15:31;0.60;;;0.60;;
16466;SDS011;8344;47.560;9.710;2023-04-15T05:17:57;0.80;;;0.80;;
16466;SDS011;8344;47.560;9.710;2023-04-15T05:20:22;0.60;;;0.60;;
16466;SDS011;8344;47.560;9.710;2023-04-15T05:22:47;0.57;;;0.57;;
16466;SDS011;8344;47.560;9.710;2023-04-15T05:25:13;0.90;;;0.90;;
16466;SDS011;8344;47.560;9.710;2023-04-15T05:27:38;0.63;;;0.63;;
16466;SDS011;8344;47.560;9.710;2023-04-15T05:30:03;0.67;;;0.67;;
16466;SDS011;8344;47.560;9.710;2023-04-15T05:32:29;0.60;;;0.60;;
16466;SDS011;8344;47.560;9.710;2023-04-15T05:34:55;0.73;;;0.73;;
16466;SDS011;8344;47.560;9.710;2023-04-15T05:37:20;0.60;;;0.60;;
16466;SDS011;8344;47.560;9.710;2023-04-15T05:39:46;0.70;;;0.70;;
16466;SDS011;8344;47.560;9.710;2023-04-15T05:42:12;0.60;;;0.60;;
16466;SDS011;8344;47.560;9.710;2023-04-15T05:44:37;0.70;;;0.70;;
16466;SDS011;8344;47.560;9.710;2023-04-15T05:47:02;0.70;;;0.70;;
16466;SDS011;8344;47.560;9.710;2023-04-15T05:49:28;0.70;;;0.70;;
16466;SDS011;8344;47.560;9.710;2023-04-15T05:51:53;0.70;;;0.70;;
16466;SDS011;8344;47.560;9.710;2023-04-15T05:54:19;0.50;;;0.50;;
16466;SDS011;8344;47.560;9.710;2023-04-15T05:56:45;0.40;;;0.40;;
16466;SDS011;8344;47.560;9.710;2023-04-15T05:59:11;0.70;;;0.70;;
16466;SDS011;8344;47.560;9.710;2023-04-15T06:01:36;0.70;;;0.70;;
16466;SDS011;8344;47.560;9.710;2023-04-15T06:04:02;0.60;;;0.60;;
16466;SDS011;8344;47.560;9.710;2023-04-15T06:06:27;0.60;;;0.60;;
16466;SDS011;8344;47.560;9.710;2023-04-15T06:08:52;0.70;;;0.70;;
16466;SDS011;8344;47.560;9.710;2023-04-15T06:11:19;0.57;;;0.57;;
16466;SDS011;8344;47.560;9.710;2023-04-15T06:13:45;0.50;;;0.50;;
16466;SDS011;8344;47.560;9.710;2023-04-15T06:16:11;0.60;;;0.60;;
16466;SDS011;8344;47.560;9.710;2023-04-15T06:18:36;0.60;;;0.60;;
16466;SDS011;8344;47.560;9.710;2023-04-15T06:21:01;0.60;;;0.60;;
16466;SDS011;8344;47.560;9.710;2023-04-15T06:23:27;0.60;;;0.60;;
16466;SDS011;8344;47.560;9.710;2023-04-15T06:25:52;0.40;;;0.40;;
16466;SDS011;8344;47.560;9.710;2023-04-15T06:28:17;0.40;;;0.40;;
16466;SDS011;8344;47.560;9.710;2023-04-15T06:30:43;0.40;;;0.40;;
16466;SDS011;8344;47.560;9.710;2023-04-15T06:33:08;0.38;;;0.38;;
16466;SDS011;8344;47.560;9.710;2023-04-15T06:35:34;0.50;;;0.50;;
16466;SDS011;8344;47.560;9.710;2023-04-15T06:38:00;0.30;;;0.30;;
16466;SDS011;8344;47.560;9.710;2023-04-15T06:40:25;0.22;;;0.22;;
16466;SDS011;8344;47.560;9.710;2023-04-15T06:42:50;0.22;;;0.22;;
16466;SDS011;8344;47.560;9.710;2023-04-15T06:45:16;0.30;;;0.30;;
16466;SDS011;8344;47.560;9.710;2023-04-15T06:47:41;0.30;;;0.30;;
16466;SDS011;8344;47.560;9.710;2023-04-15T06:50:07;0.30;;;0.30;;
16466;SDS011;8344;47.560;9.710;2023-04-15T06:52:33;0.30;;;0.30;;
16466;SDS011;8344;47.560;9.710;2023-04-15T06:54:59;0.30;;;0.30;;
16466;SDS011;8344;47.560;9.710;2023-04-15T06:57:26;0.30;;;0.30;;
16466;SDS011;8344;47.560;9.710;2023-04-15T06:59:52;0.30;;;0.30;;
16466;SDS011;8344;47.560;9.710;2023-04-15T07:02:18;0.38;;;0.38;;
16466;SDS011;8344;47.560;9.710;2023-04-15T07:04:43;0.40;;;0.40;;
16466;SDS011;8344;47.560;9.710;2023-04-15T07:07:09;0.45;;;0.45;;
16466;SDS011;8344;47.560;9.710;2023-04-15T07:09:34;0.40;;;0.40;;
16466;SDS011;8344;47.560;9.710;2023-04-15T07:12:00;0.40;;;0.40;;
16466;SDS011;8344;47.560;9.710;2023-04-15T07:14:25;0.30;;;0.30;;
16466;SDS011;8344;47.560;9.710;2023-04-15T07:16:50;0.50;;;0.50;;
16466;SDS011;8344;47.560;9.710;2023-04-15T07:19:15;0.30;;;0.30;;
16466;SDS011;8344;47.560;9.710;2023-04-15T07:21:41;0.60;;;0.60;;
16466;SDS011;8344;47.560;9.710;2023-04-15T07:24:06;0.50;;;0.50;;
16466;SDS011;8344;47.560;9.710;2023-04-15T07:26:32;0.50;;;0.50;;
16466;SDS011;8344;47.560;9.710;2023-04-15T07:28:58;0.40;;;0.40;;
16466;SDS011;8344;47.560;9.710;2023-04-15T07:31:23;0.30;;;0.30;;
16466;SDS011;8344;47.560;9.710;2023-04-15T07:33:48;0.30;;;0.30;;
16466;SDS011;8344;47.560;9.710;2023-04-15T07:36:13;0.60;;;0.60;;
16466;SDS011;8344;47.560;9.710;2023-04-15T07:38:39;0.40;;;0.40;;
16466;SDS011;8344;47.560;9.710;2023-04-15T07:41:04;0.40;;;0.40;;
16466;SDS011;8344;47.560;9.710;2023-04-15T07:43:30;0.45;;;0.45;;
16466;SDS011;8344;47.560;9.710;2023-04-15T07:45:55;0.60;;;0.60;;
16466;SDS011;8344;47.560;9.710;2023-04-15T07:48:20;0.40;;;0.40;;
16466;SDS011;8344;47.560;9.710;2023-04-15T07:50:45;0.30;;;0.30;;
16466;SDS011;8344;47.560;9.710;2023-04-15T07:53:11;0.50;;;0.50;;
16466;SDS011;8344;47.560;9.710;2023-04-15T07:55:36;0.40;;;0.40;;
16466;SDS011;8344;47.560;9.710;2023-04-15T07:58:01;0.32;;;0.32;;
16466;SDS011;8344;47.560;9.710;2023-04-15T08:00:27;0.30;;;0.30;;
16466;SDS011;8344;47.560;9.710;2023-04-15T08:02:52;0.30;;;0.30;;
16466;SDS011;8344;47.560;9.710;2023-04-15T08:05:18;0.38;;;0.38;;
16466;SDS011;8344;47.560;9.710;2023-04-15T08:07:43;0.30;;;0.30;;
16466;SDS011;8344;47.560;9.710;2023-04-15T08:10:09;0.40;;;0.40;;
16466;SDS011;8344;47.560;9.710;2023-04-15T08:12:35;0.28;;;0.28;;
16466;SDS011;8344;47.560;9.710;2023-04-15T08:15:01;0.40;;;0.40;;
16466;SDS011;8344;47.560;9.710;2023-04-15T08:17:26;0.30;;;0.30;;
16466;SDS011;8344;47.560;9.710;2023-04-15T08:19:52;0.20;;;0.20;;
16466;SDS011;8344;47.560;9.710;2023-04-15T08:22:17;0.30;;;0.30;;
16466;SDS011;8344;47.560;9.710;2023-04-15T08:24:43;0.25;;;0.25;;
16466;SDS011;8344;47.560;9.710;2023-04-15T08:27:08;0.30;;;0.30;;
16466;SDS011;8344;47.560;9.710;2023-04-15T08:29:34;0.30;;;0.30;;
16466;SDS011;8344;47.560;9.710;2023-04-15T08:31:59;0.35;;;0.35;;
16466;SDS011;8344;47.560;9.710;2023-04-15T08:34:28;0.40;;;0.40;;
16466;SDS011;8344;47.560;9.710;2023-04-15T08:36:53;0.40;;;0.40;;
16466;SDS011;8344;47.560;9.710;2023-04-15T08:39:18;0.30;;;0.30;;
16466;SDS011;8344;47.560;9.710;2023-04-15T08:41:45;0.40;;;0.40;;
16466;SDS011;8344;47.560;9.710;2023-04-15T08:44:12;0.30;;;0.30;;
16466;SDS011;8344;47.560;9.710;2023-04-15T08:46:38;0.30;;;0.30;;
16466;SDS011;8344;47.560;9.710;2023-04-15T08:49:03;0.30;;;0.30;;
16466;SDS011;8344;47.560;9.710;2023-04-15T08:51:30;0.30;;;0.30;;
16466;SDS011;8344;47.560;9.710;2023-04-15T08:53:55;0.30;;;0.30;;
16466;SDS011;8344;47.560;9.710;2023-04-15T08:56:23;0.30;;;0.30;;
16466;SDS011;8344;47.560;9.710;2023-04-15T08:58:49;0.30;;;0.30;;
16466;SDS011;8344;47.560;9.710;2023-04-15T09:01:15;0.30;;;0.30;;
16466;SDS011;8344;47.560;9.710;2023-04-15T09:03:41;0.28;;;0.28;;
16466;SDS011;8344;47.560;9.710;2023-04-15T09:06:06;0.20;;;0.20;;
16466;SDS011;8344;47.560;9.710;2023-04-15T09:08:32;0.28;;;0.28;;
16466;SDS011;8344;47.560;9.710;2023-04-15T09:11:01;0.40;;;0.40;;
16466;SDS011;8344;47.560;9.710;2023-04-15T09:13:27;0.38;;;0.38;;
16466;SDS011;8344;47.560;9.710;2023-04-15T09:15:52;0.30;;;0.30;;
16466;SDS011;8344;47.560;9.710;2023-04-15T09:18:31;0.40;;;0.40;;
16466;SDS011;8344;47.560;9.710;2023-04-15T09:21:13;0.38;;;0.38;;
16466;SDS011;8344;47.560;9.710;2023-04-15T09:24:00;0.30;;;0.30;;
16466;SDS011;8344;47.560;9.710;2023-04-15T09:26:35;0.30;;;0.30;;
16466;SDS011;8344;47.560;9.710;2023-04-15T09:29:05;0.20;;;0.20;;
16466;SDS011;8344;47.560;9.710;2023-04-15T09:31:31;0.20;;;0.20;;
16466;SDS011;8344;47.560;9.710;2023-04-15T09:33:57;0.40;;;0.40;;
16466;SDS011;8344;47.560;9.710;2023-04-15T09:36:22;0.25;;;0.25;;
16466;SDS011;8344;47.560;9.710;2023-04-15T09:38:55;0.30;;;0.30;;
16466;SDS011;8344;47.560;9.710;2023-04-15T09:41:21;0.22;;;0.22;;
16466;SDS011;8344;47.560;9.710;2023-04-15T09:43:47;0.30;;;0.30;;
16466;SDS011;8344;47.560;9.710;2023-04-15T09:46:12;0.35;;;0.35;;
16466;SDS011;8344;47.560;9.710;2023-04-15T09:48:38;0.20;;;0.20;;
16466;SDS011;8344;47.560;9.710;2023-04-15T09:51:03;0.30;;;0.30;;
16466;SDS011;8344;47.560;9.710;2023-04-15T09:53:29;0.30;;;0.30;;
16466;SDS011;8344;47.560;9.710;2023-04-15T09:55:58;0.20;;;0.20;;
16466;SDS011;8344;47.560;9.710;2023-04-15T09:58:27;0.22;;;0.22;;
16466;SDS011;8344;47.560;9.710;2023-04-15T10:00:53;0.30;;;0.30;;
16466;SDS011;8344;47.560;9.710;2023-04-15T10:03:38;0.20;;;0.20;;
16466;SDS011;8344;47.560;9.710;2023-04-15T10:06:06;0.20;;;0.20;;
16466;SDS011;8344;47.560;9.710;2023-04-15T10:08:32;0.20;;;0.20;;
16466;SDS011;8344;47.560;9.710;2023-04-15T10:10:59;0.30;;;0.30;;
16466;SDS011;8344;47.560;9.710;2023-04-15T10:13:26;0.20;;;0.20;;
16466;SDS011;8344;47.560;9.710;2023-04-15T10:15:57;0.28;;;0.28;;
16466;SDS011;8344;47.560;9.710;2023-04-15T10:18:37;0.30;;;0.30;;
16466;SDS011;8344;47.560;9.710;2023-04-15T10:21:06;0.20;;;0.20;;
16466;SDS011;8344;47.560;9.710;2023-04-15T10:23:32;0.30;;;0.30;;
16466;SDS011;8344;47.560;9.710;2023-04-15T10:25:58;0.30;;;0.30;;
16466;SDS011;8344;47.560;9.710;2023-04-15T10:28:23;0.20;;;0.20;;
16466;SDS011;8344;47.560;9.710;2023-04-15T10:30:51;0.30;;;0.30;;
16466;SDS011;8344;47.560;9.710;2023-04-15T10:33:18;0.20;;;0.20;;
16466;SDS011;8344;47.560;9.710;2023-04-15T10:35:44;0.20;;;0.20;;
16466;SDS011;8344;47.560;9.710;2023-04-15T10:38:30;0.30;;;0.30;;
16466;SDS011;8344;47.560;9.710;2023-04-15T10:41:18;0.20;;;0.20;;
16466;SDS011;8344;47.560;9.710;2023-04-15T10:43:52;0.40;;;0.40;;
16466;SDS011;8344;47.560;9.710;2023-04-15T10:49:06;0.40;;;0.40;;
16466;SDS011;8344;47.560;9.710;2023-04-15T10:51:40;0.30;;;0.30;;
16466;SDS011;8344;47.560;9.710;2023-04-15T10:54:13;0.20;;;0.20;;
16466;SDS011;8344;47.560;9.710;2023-04-15T10:56:40;0.20;;;0.20;;
16466;SDS011;8344;47.560;9.710;2023-04-15T10:59:08;0.20;;;0.20;;
16466;SDS011;8344;47.560;9.710;2023-04-15T11:01:49;0.20;;;0.20;;
16466;SDS011;8344;47.560;9.710;2023-04-15T11:07:40;0.20;;;0.20;;
16466;SDS011;8344;47.560;9.710;2023-04-15T11:12:42;0.30;;;0.30;;
16466;SDS011;8344;47.560;9.710;2023-04-15T11:17:52;0.30;;;0.30;;
16466;SDS011;8344;47.560;9.710;2023-04-15T11:20:17;0.28;;;0.28;;
16466;SDS011;8344;47.560;9.710;2023-04-15T11:22:47;0.30;;;0.30;;
16466;SDS011;8344;47.560;9.710;2023-04-15T11:25:28;0.22;;;0.22;;
16466;SDS011;8344;47.560;9.710;2023-04-15T11:27:57;0.20;;;0.20;;
16466;SDS011;8344;47.560;9.710;2023-04-15T11:30:24;0.20;;;0.20;;
16466;SDS011;8344;47.560;9.710;2023-04-15T11:32:51;0.30;;;0.30;;
16466;SDS011;8344;47.560;9.710;2023-04-15T11:35:18;0.22;;;0.22;;
16466;SDS011;8344;47.560;9.710;2023-04-15T11:37:44;0.30;;;0.30;;
16466;SDS011;8344;47.560;9.710;2023-04-15T11:40:10;0.20;;;0.20;;
16466;SDS011;8344;47.560;9.710;2023-04-15T11:42:36;0.30;;;0.30;;
16466;SDS011;8344;47.560;9.710;2023-04-15T11:45:08;0.40;;;0.40;;
16466;SDS011;8344;47.560;9.710;2023-04-15T11:47:38;0.30;;;0.30;;
16466;SDS011;8344;47.560;9.710;2023-04-15T11:50:16;0.25;;;0.25;;
16466;SDS011;8344;47.560;9.710;2023-04-15T11:52:55;0.20;;;0.20;;
16466;SDS011;8344;47.560;9.710;2023-04-15T11:55:21;0.30;;;0.30;;
16466;SDS011;8344;47.560;9.710;2023-04-15T11:58:04;0.30;;;0.30;;
16466;SDS011;8344;47.560;9.710;2023-04-15T12:00:32;0.30;;;0.30;;
16466;SDS011;8344;47.560;9.710;2023-04-15T12:06:17;0.20;;;0.20;;
16466;SDS011;8344;47.560;9.710;2023-04-15T12:11:13;0.30;;;0.30;;
16466;SDS011;8344;47.560;9.710;2023-04-15T12:13:42;0.30;;;0.30;;
16466;SDS011;8344;47.560;9.710;2023-04-15T12:16:28;0.30;;;0.30;;
16466;SDS011;8344;47.560;9.710;2023-04-15T12:18:54;0.22;;;0.22;;
16466;SDS011;8344;47.560;9.710;2023-04-15T12:21:22;0.30;;;0.30;;
16466;SDS011;8344;47.560;9.710;2023-04-15T12:23:51;0.30;;;0.30;;
16466;SDS011;8344;47.560;9.710;2023-04-15T12:26:24;0.30;;;0.30;;
16466;SDS011;8344;47.560;9.710;2023-04-15T12:28:54;0.30;;;0.30;;
16466;SDS011;8344;47.560;9.710;2023-04-15T12:31:21;0.20;;;0.20;;
16466;SDS011;8344;47.560;9.710;2023-04-15T12:33:47;0.30;;;0.30;;
16466;SDS011;8344;47.560;9.710;2023-04-15T12:36:13;0.30;;;0.30;;
16466;SDS011;8344;47.560;9.710;2023-04-15T12:38:39;0.30;;;0.30;;
16466;SDS011;8344;47.560;9.710;2023-04-15T12:41:04;0.30;;;0.30;;
16466;SDS011;8344;47.560;9.710;2023-04-15T12:43:29;0.20;;;0.20;;
16466;SDS011;8344;47.560;9.710;2023-04-15T12:45:55;0.20;;;0.20;;
16466;SDS011;8344;47.560;9.710;2023-04-15T12:48:20;0.30;;;0.30;;
16466;SDS011;8344;47.560;9.710;2023-04-15T12:50:46;0.20;;;0.20;;
16466;SDS011;8344;47.560;9.710;2023-04-15T12:53:12;0.30;;;0.30;;
16466;SDS011;8344;47.560;9.710;2023-04-15T12:55:37;0.25;;;0.25;;
16466;SDS011;8344;47.560;9.710;2023-04-15T12:58:03;0.30;;;0.30;;
16466;SDS011;8344;47.560;9.710;2023-04-15T13:00:28;0.40;;;0.40;;
16466;SDS011;8344;47.560;9.710;2023-04-15T13:02:53;0.30;;;0.30;;
16466;SDS011;8344;47.560;9.710;2023-04-15T13:05:19;0.30;;;0.30;;
16466;SDS011;8344;47.560;9.710;2023-04-15T13:07:44;0.30;;;0.30;;
16466;SDS011;8344;47.560;9.710;2023-04-15T13:10:10;0.20;;;0.20;;
16466;SDS011;8344;47.560;9.710;2023-04-15T13:12:35;0.30;;;0.30;;
16466;SDS011;8344;47.560;9.710;2023-04-15T13:15:01;0.28;;;0.28;;
16466;SDS011;8344;47.560;9.710;2023-04-15T13:17:28;0.20;;;0.20;;
16466;SDS011;8344;47.560;9.710;2023-04-15T13:19:53;0.30;;;0.30;;
16466;SDS011;8344;47.560;9.710;2023-04-15T13:22:18;0.28;;;0.28;;
16466;SDS011;8344;47.560;9.710;2023-04-15T13:24:44;0.20;;;0.20;;
16466;SDS011;8344;47.560;9.710;2023-04-15T13:27:09;0.20;;;0.20;;
16466;SDS011;8344;47.560;9.710;2023-04-15T13:29:35;0.30;;;0.30;;
16466;SDS011;8344;47.560;9.710;2023-04-15T13:32:00;0.30;;;0.30;;
16466;SDS011;8344;47.560;9.710;2023-04-15T13:34:25;0.30;;;0.30;;
16466;SDS011;8344;47.560;9.710;2023-04-15T13:36:51;0.30;;;0.30;;
16466;SDS011;8344;47.560;9.710;2023-04-15T13:39:16;0.25;;;0.25;;
16466;SDS011;8344;47.560;9.710;2023-04-15T13:41:41;0.30;;;0.30;;
16466;SDS011;8344;47.560;9.710;2023-04-15T13:44:07;0.30;;;0.30;;
16466;SDS011;8344;47.560;9.710;2023-04-15T13:46:32;0.30;;;0.30;;
16466;SDS011;8344;47.560;9.710;2023-04-15T13:48:57;0.20;;;0.20;;
16466;SDS011;8344;47.560;9.710;2023-04-15T13:51:22;0.30;;;0.30;;
16466;SDS011;8344;47.560;9.710;2023-04-15T13:53:48;0.20;;;0.20;;
16466;SDS011;8344;47.560;9.710;2023-04-15T13:56:13;0.30;;;0.30;;
16466;SDS011;8344;47.560;9.710;2023-04-15T13:58:39;0.30;;;0.30;;
16466;SDS011;8344;47.560;9.710;2023-04-15T14:01:04;0.30;;;0.30;;
16466;SDS011;8344;47.560;9.710;2023-04-15T14:03:30;0.40;;;0.40;;
16466;SDS011;8344;47.560;9.710;2023-04-15T14:05:55;0.40;;;0.40;;
16466;SDS011;8344;47.560;9.710;2023-04-15T14:08:22;0.30;;;0.30;;
16466;SDS011;8344;47.560;9.710;2023-04-15T14:10:47;0.40;;;0.40;;
16466;SDS011;8344;47.560;9.710;2023-04-15T14:13:13;0.20;;;0.20;;
16466;SDS011;8344;47.560;9.710;2023-04-15T14:15:39;0.30;;;0.30;;
16466;SDS011;8344;47.560;9.710;2023-04-15T14:18:05;0.30;;;0.30;;
16466;SDS011;8344;47.560;9.710;2023-04-15T14:20:30;0.30;;;0.30;;
16466;SDS011;8344;47.560;9.710;2023-04-15T14:22:55;0.20;;;0.20;;
16466;SDS011;8344;47.560;9.710;2023-04-15T14:25:20;0.40;;;0.40;;
16466;SDS011;8344;47.560;9.710;2023-04-15T14:27:46;0.40;;;0.40;;
16466;SDS011;8344;47.560;9.710;2023-04-15T14:30:12;0.43;;;0.43;;
16466;SDS011;8344;47.560;9.710;2023-04-15T14:32:37;0.30;;;0.30;;
16466;SDS011;8344;47.560;9.710;2023-04-15T14:35:02;0.40;;;0.40;;
16466;SDS011;8344;47.560;9.710;2023-04-15T14:37:28;0.30;;;0.30;;
16466;SDS011;8344;47.560;9.710;2023-04-15T14:39:53;0.40;;;0.40;;
16466;SDS011;8344;47.560;9.710;2023-04-15T14:42:18;0.30;;;0.30;;
16466;SDS011;8344;47.560;9.710;2023-04-15T14:44:44;0.30;;;0.30;;
16466;SDS011;8344;47.560;9.710;2023-04-15T14:47:09;0.40;;;0.40;;
16466;SDS011;8344;47.560;9.710;2023-04-15T14:49:35;0.30;;;0.30;;
16466;SDS011;8344;47.560;9.710;2023-04-15T14:52:00;0.45;;;0.45;;
16466;SDS011;8344;47.560;9.710;2023-04-15T14:54:25;0.20;;;0.20;;
16466;SDS011;8344;47.560;9.710;2023-04-15T14:56:50;0.20;;;0.20;;
16466;SDS011;8344;47.560;9.710;2023-04-15T14:59:16;0.40;;;0.40;;
16466;SDS011;8344;47.560;9.710;2023-04-15T15:01:41;0.25;;;0.25;;
16466;SDS011;8344;47.560;9.710;2023-04-15T15:04:08;0.30;;;0.30;;
16466;SDS011;8344;47.560;9.710;2023-04-15T15:06:34;0.40;;;0.40;;
16466;SDS011;8344;47.560;9.710;2023-04-15T15:08:59;0.38;;;0.38;;
16466;SDS011;8344;47.560;9.710;2023-04-15T15:11:25;0.40;;;0.40;;
16466;SDS011;8344;47.560;9.710;2023-04-15T15:13:51;0.30;;;0.30;;